sensor_id;sensor_type;location;lat;lon;timestamp;P1;durP1;ratioP1;P2;durP2;ratioP2
49582;SDS011;36329;48.816;44.624;2022-07-09T00:01:19;9.8;;;5;;
49582;SDS011;36329;48.816;44.624;2022-07-09T00:04:21;11.5;;;4.8;;
49582;SDS011;36329;48.816;44.624;2022-07-09T00:07:23;12.1;;;4.9;;
49582;SDS011;36329;48.816;44.624;2022-07-09T00:10:24;11.3;;;4.2;;
49582;SDS011;36329;48.816;44.624;2022-07-09T00:13:25;9.8;;;3.8;;
49582;SDS011;36329;48.816;44.624;2022-07-09T00:16:27;8.8;;;3.6;;
49582;SDS011;36329;48.816;44.624;2022-07-09T00:19:33;10.7;;;4;;
49582;SDS011;36329;48.816;44.624;2022-07-09T00:22:35;7.1;;;3.2;;
49582;SDS011;36329;48.816;44.624;2022-07-09T00:25:36;8.4;;;3.3;;
49582;SDS011;36329;48.816;44.624;2022-07-09T00:28:38;7.5;;;2.9;;
49582;SDS011;36329;48.816;44.624;2022-07-09T00:31:44;6.8;;;3.2;;
49582;SDS011;36329;48.816;44.624;2022-07-09T00:34:46;8.1;;;3.3;;
49582;SDS011;36329;48.816;44.624;2022-07-09T00:37:47;7.3;;;3.5;;
49582;SDS011;36329;48.816;44.624;2022-07-09T00:40:49;6.1;;;2.9;;
49582;SDS011;36329;48.816;44.624;2022-07-09T00:43:50;9.5;;;3.1;;
49582;SDS011;36329;48.816;44.624;2022-07-09T00:46:52;5.5;;;2.9;;
49582;SDS011;36329;48.816;44.624;2022-07-09T00:49:53;7.6;;;2.8;;
49582;SDS011;36329;48.816;44.624;2022-07-09T00:52:55;6.9;;;2.7;;
49582;SDS011;36329;48.816;44.624;2022-07-09T00:55:56;8.2;;;2.7;;
49582;SDS011;36329;48.816;44.624;2022-07-09T00:58:58;7.5;;;2.6;;
49582;SDS011;36329;48.816;44.624;2022-07-09T01:02:00;6.3;;;2.8;;
49582;SDS011;36329;48.816;44.624;2022-07-09T01:05:02;7;;;2.5;;
49582;SDS011;36329;48.816;44.624;2022-07-09T01:08:04;7.9;;;2.9;;
49582;SDS011;36329;48.816;44.624;2022-07-09T01:11:06;7.8;;;3.3;;
49582;SDS011;36329;48.816;44.624;2022-07-09T01:14:13;6.3;;;2.9;;
49582;SDS011;36329;48.816;44.624;2022-07-09T01:17:15;8.4;;;3;;
49582;SDS011;36329;48.816;44.624;2022-07-09T01:20:18;6.3;;;3;;
49582;SDS011;36329;48.816;44.624;2022-07-09T01:23:19;7.3;;;3.3;;
49582;SDS011;36329;48.816;44.624;2022-07-09T01:26:21;8.5;;;3.5;;
49582;SDS011;36329;48.816;44.624;2022-07-09T01:29:24;6.1;;;3.3;;
49582;SDS011;36329;48.816;44.624;2022-07-09T01:32:25;6.4;;;3.5;;
49582;SDS011;36329;48.816;44.624;2022-07-09T01:35:27;12.4;;;4.3;;
49582;SDS011;36329;48.816;44.624;2022-07-09T01:38:28;10;;;3.9;;
49582;SDS011;36329;48.816;44.624;2022-07-09T01:41:30;8.1;;;3.7;;
49582;SDS011;36329;48.816;44.624;2022-07-09T01:44:31;9;;;4.1;;
49582;SDS011;36329;48.816;44.624;2022-07-09T01:47:37;8.7;;;3.6;;
49582;SDS011;36329;48.816;44.624;2022-07-09T01:50:44;9.1;;;4.3;;
49582;SDS011;36329;48.816;44.624;2022-07-09T01:53:50;9.3;;;4.2;;
49582;SDS011;36329;48.816;44.624;2022-07-09T01:56:52;9.2;;;4.4;;
49582;SDS011;36329;48.816;44.624;2022-07-09T01:59:58;8.7;;;4.5;;
49582;SDS011;36329;48.816;44.624;2022-07-09T02:03:01;10.6;;;4.7;;
49582;SDS011;36329;48.816;44.624;2022-07-09T02:06:04;10.6;;;4.9;;
49582;SDS011;36329;48.816;44.624;2022-07-09T02:09:05;12.7;;;5.6;;
49582;SDS011;36329;48.816;44.624;2022-07-09T02:12:12;10.1;;;5.2;;
49582;SDS011;36329;48.816;44.624;2022-07-09T02:15:13;12.1;;;5.8;;
49582;SDS011;36329;48.816;44.624;2022-07-09T02:18:15;11.7;;;6.1;;
49582;SDS011;36329;48.816;44.624;2022-07-09T02:21:22;11.4;;;6.1;;
49582;SDS011;36329;48.816;44.624;2022-07-09T02:24:23;16.4;;;6.5;;
49582;SDS011;36329;48.816;44.624;2022-07-09T02:27:25;9.9;;;6;;
49582;SDS011;36329;48.816;44.624;2022-07-09T02:30:31;14;;;6.5;;
49582;SDS011;36329;48.816;44.624;2022-07-09T02:33:33;15.5;;;6.8;;
49582;SDS011;36329;48.816;44.624;2022-07-09T02:36:34;12.1;;;6.4;;
49582;SDS011;36329;48.816;44.624;2022-07-09T02:39:41;15.2;;;6.6;;
49582;SDS011;36329;48.816;44.624;2022-07-09T02:42:42;11.1;;;6.4;;
49582;SDS011;36329;48.816;44.624;2022-07-09T02:45:44;10.9;;;6.4;;
49582;SDS011;36329;48.816;44.624;2022-07-09T02:48:45;10.7;;;6.6;;
49582;SDS011;36329;48.816;44.624;2022-07-09T02:51:47;10.5;;;6.7;;
49582;SDS011;36329;48.816;44.624;2022-07-09T02:54:48;12.2;;;6.4;;
49582;SDS011;36329;48.816;44.624;2022-07-09T02:57:55;12.3;;;7;;
49582;SDS011;36329;48.816;44.624;2022-07-09T03:00:56;14.1;;;7;;
49582;SDS011;36329;48.816;44.624;2022-07-09T03:04:03;11.5;;;7.1;;
49582;SDS011;36329;48.816;44.624;2022-07-09T03:07:05;16.5;;;7;;
49582;SDS011;36329;48.816;44.624;2022-07-09T03:10:06;14.8;;;7;;
49582;SDS011;36329;48.816;44.624;2022-07-09T03:13:09;15.1;;;7.5;;
49582;SDS011;36329;48.816;44.624;2022-07-09T03:16:10;12.3;;;7.2;;
49582;SDS011;36329;48.816;44.624;2022-07-09T03:19:12;13.9;;;7.3;;
49582;SDS011;36329;48.816;44.624;2022-07-09T03:22:13;12.8;;;7.7;;
49582;SDS011;36329;48.816;44.624;2022-07-09T03:25:14;15.9;;;7.5;;
49582;SDS011;36329;48.816;44.624;2022-07-09T03:28:16;14.5;;;7.5;;
49582;SDS011;36329;48.816;44.624;2022-07-09T03:31:18;19.1;;;7.9;;
49582;SDS011;36329;48.816;44.624;2022-07-09T03:34:19;18.5;;;7.3;;
49582;SDS011;36329;48.816;44.624;2022-07-09T03:37:21;17.9;;;7;;
49582;SDS011;36329;48.816;44.624;2022-07-09T03:40:22;16.1;;;7.2;;
49582;SDS011;36329;48.816;44.624;2022-07-09T03:43:24;22.9;;;7.2;;
49582;SDS011;36329;48.816;44.624;2022-07-09T03:46:25;24.2;;;8.3;;
49582;SDS011;36329;48.816;44.624;2022-07-09T03:49:28;24.3;;;8.1;;
49582;SDS011;36329;48.816;44.624;2022-07-09T03:52:29;28.2;;;8.1;;
49582;SDS011;36329;48.816;44.624;2022-07-09T03:55:36;26.5;;;8.3;;
49582;SDS011;36329;48.816;44.624;2022-07-09T03:58:38;20.7;;;8;;
49582;SDS011;36329;48.816;44.624;2022-07-09T04:01:39;27.2;;;8.3;;
49582;SDS011;36329;48.816;44.624;2022-07-09T04:04:41;20.9;;;8.1;;
49582;SDS011;36329;48.816;44.624;2022-07-09T04:07:42;25.9;;;8.3;;
49582;SDS011;36329;48.816;44.624;2022-07-09T04:10:44;24.5;;;8.4;;
49582;SDS011;36329;48.816;44.624;2022-07-09T04:13:50;22.3;;;7.5;;
49582;SDS011;36329;48.816;44.624;2022-07-09T04:16:52;24.1;;;7.6;;
49582;SDS011;36329;48.816;44.624;2022-07-09T04:19:53;17.3;;;7.4;;
49582;SDS011;36329;48.816;44.624;2022-07-09T04:22:55;21.4;;;7.6;;
49582;SDS011;36329;48.816;44.624;2022-07-09T04:26:01;24.8;;;7.9;;
49582;SDS011;36329;48.816;44.624;2022-07-09T04:29:03;21.6;;;7.7;;
49582;SDS011;36329;48.816;44.624;2022-07-09T04:32:04;20.2;;;7.4;;
49582;SDS011;36329;48.816;44.624;2022-07-09T04:35:11;17.1;;;7.3;;
49582;SDS011;36329;48.816;44.624;2022-07-09T04:38:18;17.7;;;7.6;;
49582;SDS011;36329;48.816;44.624;2022-07-09T04:41:19;13.1;;;7.1;;
49582;SDS011;36329;48.816;44.624;2022-07-09T04:44:20;13.2;;;7.2;;
49582;SDS011;36329;48.816;44.624;2022-07-09T04:47:22;15.3;;;7.4;;
49582;SDS011;36329;48.816;44.624;2022-07-09T04:50:23;13.2;;;6.7;;
49582;SDS011;36329;48.816;44.624;2022-07-09T04:53:30;12;;;6.9;;
49582;SDS011;36329;48.816;44.624;2022-07-09T04:56:32;10.8;;;6.4;;
49582;SDS011;36329;48.816;44.624;2022-07-09T04:59:38;10.4;;;5.9;;
49582;SDS011;36329;48.816;44.624;2022-07-09T05:02:40;10.7;;;6.2;;
49582;SDS011;36329;48.816;44.624;2022-07-09T05:05:42;9.7;;;5.8;;
49582;SDS011;36329;48.816;44.624;2022-07-09T05:08:43;13.6;;;5.8;;
49582;SDS011;36329;48.816;44.624;2022-07-09T05:11:45;10.9;;;5.3;;
49582;SDS011;36329;48.816;44.624;2022-07-09T05:14:46;7.7;;;4.9;;
49582;SDS011;36329;48.816;44.624;2022-07-09T05:17:48;10.6;;;5.3;;
49582;SDS011;36329;48.816;44.624;2022-07-09T05:20:49;10.2;;;5.2;;
49582;SDS011;36329;48.816;44.624;2022-07-09T05:23:51;7.9;;;4.9;;
49582;SDS011;36329;48.816;44.624;2022-07-09T05:26:57;11.5;;;5;;
49582;SDS011;36329;48.816;44.624;2022-07-09T05:30:04;8.9;;;5.1;;
49582;SDS011;36329;48.816;44.624;2022-07-09T05:33:06;9.2;;;5.3;;
49582;SDS011;36329;48.816;44.624;2022-07-09T05:36:08;9.3;;;5.7;;
49582;SDS011;36329;48.816;44.624;2022-07-09T05:39:09;10.2;;;5;;
49582;SDS011;36329;48.816;44.624;2022-07-09T05:42:10;8.9;;;4.8;;
49582;SDS011;36329;48.816;44.624;2022-07-09T05:45:12;8.5;;;4.6;;
49582;SDS011;36329;48.816;44.624;2022-07-09T05:48:13;6.3;;;4.1;;
49582;SDS011;36329;48.816;44.624;2022-07-09T05:51:15;9.7;;;4;;
49582;SDS011;36329;48.816;44.624;2022-07-09T05:54:26;8.5;;;3.9;;
49582;SDS011;36329;48.816;44.624;2022-07-09T05:57:28;11.6;;;4;;
49582;SDS011;36329;48.816;44.624;2022-07-09T06:00:30;10.2;;;4.3;;
49582;SDS011;36329;48.816;44.624;2022-07-09T06:03:31;8.7;;;4.3;;
49582;SDS011;36329;48.816;44.624;2022-07-09T06:06:33;9.1;;;4.7;;
49582;SDS011;36329;48.816;44.624;2022-07-09T06:09:34;7.6;;;3.9;;
49582;SDS011;36329;48.816;44.624;2022-07-09T06:12:36;7.6;;;3.9;;
49582;SDS011;36329;48.816;44.624;2022-07-09T06:15:37;7.5;;;3.5;;
49582;SDS011;36329;48.816;44.624;2022-07-09T06:18:49;7.5;;;3.4;;
49582;SDS011;36329;48.816;44.624;2022-07-09T06:21:50;7.2;;;3.1;;
49582;SDS011;36329;48.816;44.624;2022-07-09T06:24:52;10.5;;;3.5;;
49582;SDS011;36329;48.816;44.624;2022-07-09T06:27:53;8.3;;;3.7;;
49582;SDS011;36329;48.816;44.624;2022-07-09T06:30:55;7;;;3.6;;
49582;SDS011;36329;48.816;44.624;2022-07-09T06:33:56;9.4;;;3.5;;
49582;SDS011;36329;48.816;44.624;2022-07-09T06:37:03;9;;;3.6;;
49582;SDS011;36329;48.816;44.624;2022-07-09T06:40:05;8.4;;;3.6;;
49582;SDS011;36329;48.816;44.624;2022-07-09T06:43:07;6.2;;;3.6;;
49582;SDS011;36329;48.816;44.624;2022-07-09T06:46:08;8;;;3.5;;
49582;SDS011;36329;48.816;44.624;2022-07-09T06:49:10;9.3;;;3.2;;
49582;SDS011;36329;48.816;44.624;2022-07-09T06:52:11;9.8;;;3.3;;
49582;SDS011;36329;48.816;44.624;2022-07-09T06:55:13;9.1;;;3.2;;
49582;SDS011;36329;48.816;44.624;2022-07-09T06:58:14;6.3;;;3;;
49582;SDS011;36329;48.816;44.624;2022-07-09T07:01:16;10.1;;;3.2;;
49582;SDS011;36329;48.816;44.624;2022-07-09T07:04:17;7.6;;;2.9;;
49582;SDS011;36329;48.816;44.624;2022-07-09T07:07:19;9;;;3.6;;
49582;SDS011;36329;48.816;44.624;2022-07-09T07:10:20;7.2;;;3.7;;
49582;SDS011;36329;48.816;44.624;2022-07-09T07:13:22;6.7;;;3.7;;
49582;SDS011;36329;48.816;44.624;2022-07-09T07:16:23;9.6;;;4;;
49582;SDS011;36329;48.816;44.624;2022-07-09T07:19:25;6.5;;;3.7;;
49582;SDS011;36329;48.816;44.624;2022-07-09T07:22:27;10.9;;;3.8;;
49582;SDS011;36329;48.816;44.624;2022-07-09T07:25:28;9.4;;;3.6;;
49582;SDS011;36329;48.816;44.624;2022-07-09T07:28:35;7.3;;;3.8;;
49582;SDS011;36329;48.816;44.624;2022-07-09T07:31:36;9.1;;;4;;
49582;SDS011;36329;48.816;44.624;2022-07-09T07:34:38;6.6;;;3.6;;
49582;SDS011;36329;48.816;44.624;2022-07-09T07:37:39;9.6;;;3.9;;
49582;SDS011;36329;48.816;44.624;2022-07-09T07:40:46;7.5;;;3.7;;
49582;SDS011;36329;48.816;44.624;2022-07-09T07:43:47;14.9;;;3.6;;
49582;SDS011;36329;48.816;44.624;2022-07-09T07:46:49;8.3;;;3.2;;
49582;SDS011;36329;48.816;44.624;2022-07-09T07:49:51;5.8;;;2.9;;
49582;SDS011;36329;48.816;44.624;2022-07-09T07:52:52;8.2;;;3.1;;
49582;SDS011;36329;48.816;44.624;2022-07-09T07:55:54;5.2;;;2.4;;
49582;SDS011;36329;48.816;44.624;2022-07-09T07:58:55;7.5;;;2.5;;
49582;SDS011;36329;48.816;44.624;2022-07-09T08:01:57;8.2;;;2.6;;
49582;SDS011;36329;48.816;44.624;2022-07-09T08:04:58;8.2;;;2.3;;
49582;SDS011;36329;48.816;44.624;2022-07-09T08:08:00;7.2;;;2.5;;
49582;SDS011;36329;48.816;44.624;2022-07-09T08:11:01;8.2;;;2.3;;
49582;SDS011;36329;48.816;44.624;2022-07-09T08:14:03;6.4;;;2;;
49582;SDS011;36329;48.816;44.624;2022-07-09T08:17:04;5.8;;;1.6;;
49582;SDS011;36329;48.816;44.624;2022-07-09T08:20:06;5.4;;;1.5;;
49582;SDS011;36329;48.816;44.624;2022-07-09T08:23:08;6.6;;;1.5;;
49582;SDS011;36329;48.816;44.624;2022-07-09T08:26:11;5.5;;;1.6;;
49582;SDS011;36329;48.816;44.624;2022-07-09T08:29:13;6.3;;;1.6;;
49582;SDS011;36329;48.816;44.624;2022-07-09T08:32:19;4.2;;;1.3;;
49582;SDS011;36329;48.816;44.624;2022-07-09T08:35:21;3.7;;;1.2;;
49582;SDS011;36329;48.816;44.624;2022-07-09T08:38:22;6.7;;;1.7;;
49582;SDS011;36329;48.816;44.624;2022-07-09T08:41:24;9.1;;;1.8;;
49582;SDS011;36329;48.816;44.624;2022-07-09T08:44:26;5.6;;;1.7;;
49582;SDS011;36329;48.816;44.624;2022-07-09T08:47:30;8.9;;;4.8;;
49582;SDS011;36329;48.816;44.624;2022-07-09T08:50:37;4;;;1.6;;
49582;SDS011;36329;48.816;44.624;2022-07-09T08:53:42;4.1;;;2.3;;
49582;SDS011;36329;48.816;44.624;2022-07-09T08:56:45;8.8;;;1.7;;
49582;SDS011;36329;48.816;44.624;2022-07-09T08:59:47;5.3;;;1.4;;
49582;SDS011;36329;48.816;44.624;2022-07-09T09:02:54;5.2;;;1.4;;
49582;SDS011;36329;48.816;44.624;2022-07-09T09:06:00;4.5;;;1.7;;
49582;SDS011;36329;48.816;44.624;2022-07-09T09:09:02;3.8;;;1.3;;
49582;SDS011;36329;48.816;44.624;2022-07-09T09:12:04;4.6;;;1.1;;
49582;SDS011;36329;48.816;44.624;2022-07-09T09:15:12;5.4;;;1.1;;
49582;SDS011;36329;48.816;44.624;2022-07-09T09:18:22;2.8;;;1;;
49582;SDS011;36329;48.816;44.624;2022-07-09T09:21:24;2.5;;;1;;
49582;SDS011;36329;48.816;44.624;2022-07-09T09:24:26;2.8;;;0.9;;
49582;SDS011;36329;48.816;44.624;2022-07-09T09:27:28;3.2;;;0.8;;
49582;SDS011;36329;48.816;44.624;2022-07-09T09:30:30;3.4;;;1.1;;
49582;SDS011;36329;48.816;44.624;2022-07-09T09:33:31;2.3;;;0.9;;
49582;SDS011;36329;48.816;44.624;2022-07-09T09:36:34;3.1;;;0.8;;
49582;SDS011;36329;48.816;44.624;2022-07-09T09:39:36;3.3;;;0.8;;
49582;SDS011;36329;48.816;44.624;2022-07-09T09:42:43;1.8;;;0.7;;
49582;SDS011;36329;48.816;44.624;2022-07-09T09:45:47;1.7;;;0.7;;
49582;SDS011;36329;48.816;44.624;2022-07-09T09:48:50;3.3;;;0.8;;
49582;SDS011;36329;48.816;44.624;2022-07-09T09:51:52;6.7;;;2.6;;
49582;SDS011;36329;48.816;44.624;2022-07-09T09:55:01;3.9;;;1.8;;
49582;SDS011;36329;48.816;44.624;2022-07-09T09:58:05;3.8;;;0.9;;
49582;SDS011;36329;48.816;44.624;2022-07-09T10:01:08;3;;;0.6;;
49582;SDS011;36329;48.816;44.624;2022-07-09T10:04:11;1.2;;;0.5;;
49582;SDS011;36329;48.816;44.624;2022-07-09T10:07:18;2.1;;;0.6;;
49582;SDS011;36329;48.816;44.624;2022-07-09T10:10:20;2.2;;;0.6;;
49582;SDS011;36329;48.816;44.624;2022-07-09T10:13:27;1.7;;;0.7;;
49582;SDS011;36329;48.816;44.624;2022-07-09T10:16:32;2.3;;;0.8;;
49582;SDS011;36329;48.816;44.624;2022-07-09T10:19:52;2.5;;;0.7;;
49582;SDS011;36329;48.816;44.624;2022-07-09T10:22:54;2.6;;;0.7;;
49582;SDS011;36329;48.816;44.624;2022-07-09T10:25:55;2.1;;;0.6;;
49582;SDS011;36329;48.816;44.624;2022-07-09T10:28:57;3.3;;;0.6;;
49582;SDS011;36329;48.816;44.624;2022-07-09T10:31:59;2.2;;;0.7;;
49582;SDS011;36329;48.816;44.624;2022-07-09T10:35:01;2.7;;;0.9;;
49582;SDS011;36329;48.816;44.624;2022-07-09T10:38:03;1.1;;;0.6;;
49582;SDS011;36329;48.816;44.624;2022-07-09T10:41:05;1.7;;;0.7;;
49582;SDS011;36329;48.816;44.624;2022-07-09T10:44:12;1.8;;;0.5;;
49582;SDS011;36329;48.816;44.624;2022-07-09T10:47:13;1.4;;;0.7;;
49582;SDS011;36329;48.816;44.624;2022-07-09T10:50:14;2.6;;;0.6;;
49582;SDS011;36329;48.816;44.624;2022-07-09T10:53:27;1.9;;;0.6;;
49582;SDS011;36329;48.816;44.624;2022-07-09T10:56:30;2.8;;;0.7;;
49582;SDS011;36329;48.816;44.624;2022-07-09T10:59:32;2.6;;;0.7;;
49582;SDS011;36329;48.816;44.624;2022-07-09T11:02:33;1.5;;;0.7;;
49582;SDS011;36329;48.816;44.624;2022-07-09T11:05:43;3.1;;;0.8;;
49582;SDS011;36329;48.816;44.624;2022-07-09T11:08:46;3.2;;;0.8;;
49582;SDS011;36329;48.816;44.624;2022-07-09T11:11:48;1.2;;;0.6;;
49582;SDS011;36329;48.816;44.624;2022-07-09T11:14:50;2;;;0.8;;
49582;SDS011;36329;48.816;44.624;2022-07-09T11:17:54;3.5;;;1.1;;
49582;SDS011;36329;48.816;44.624;2022-07-09T11:20:56;3.4;;;0.9;;
49582;SDS011;36329;48.816;44.624;2022-07-09T11:23:57;2;;;0.7;;
49582;SDS011;36329;48.816;44.624;2022-07-09T11:27:04;4;;;0.7;;
49582;SDS011;36329;48.816;44.624;2022-07-09T11:30:10;2.4;;;0.8;;
49582;SDS011;36329;48.816;44.624;2022-07-09T11:33:18;1.8;;;0.7;;
49582;SDS011;36329;48.816;44.624;2022-07-09T11:36:19;4.8;;;0.9;;
49582;SDS011;36329;48.816;44.624;2022-07-09T11:39:26;1.7;;;0.7;;
49582;SDS011;36329;48.816;44.624;2022-07-09T11:42:29;5.3;;;0.7;;
49582;SDS011;36329;48.816;44.624;2022-07-09T11:45:31;2.6;;;0.7;;
49582;SDS011;36329;48.816;44.624;2022-07-09T11:48:46;3.1;;;0.7;;
49582;SDS011;36329;48.816;44.624;2022-07-09T11:51:49;3.1;;;0.8;;
49582;SDS011;36329;48.816;44.624;2022-07-09T11:54:59;2;;;0.8;;
49582;SDS011;36329;48.816;44.624;2022-07-09T11:58:05;2;;;0.8;;
49582;SDS011;36329;48.816;44.624;2022-07-09T12:01:10;2.9;;;0.7;;
49582;SDS011;36329;48.816;44.624;2022-07-09T12:04:17;5.2;;;0.8;;
49582;SDS011;36329;48.816;44.624;2022-07-09T12:07:25;7.1;;;0.9;;
49582;SDS011;36329;48.816;44.624;2022-07-09T12:10:27;6;;;1;;
49582;SDS011;36329;48.816;44.624;2022-07-09T12:13:30;4.1;;;0.9;;
49582;SDS011;36329;48.816;44.624;2022-07-09T12:16:32;1.9;;;1;;
49582;SDS011;36329;48.816;44.624;2022-07-09T12:19:34;4.1;;;0.9;;
49582;SDS011;36329;48.816;44.624;2022-07-09T12:22:35;2.9;;;0.8;;
49582;SDS011;36329;48.816;44.624;2022-07-09T12:25:42;3.6;;;1;;
49582;SDS011;36329;48.816;44.624;2022-07-09T12:28:48;4.4;;;1.1;;
49582;SDS011;36329;48.816;44.624;2022-07-09T12:31:55;3.9;;;1;;
49582;SDS011;36329;48.816;44.624;2022-07-09T12:34:56;3.8;;;0.9;;
49582;SDS011;36329;48.816;44.624;2022-07-09T12:37:58;4.3;;;1.2;;
49582;SDS011;36329;48.816;44.624;2022-07-09T12:41:00;5.4;;;1;;
49582;SDS011;36329;48.816;44.624;2022-07-09T12:44:01;5.4;;;1;;
49582;SDS011;36329;48.816;44.624;2022-07-09T12:47:03;3.6;;;0.9;;
49582;SDS011;36329;48.816;44.624;2022-07-09T12:50:05;4.1;;;1;;
49582;SDS011;36329;48.816;44.624;2022-07-09T12:53:12;3.7;;;1;;
49582;SDS011;36329;48.816;44.624;2022-07-09T12:56:19;5.9;;;1;;
49582;SDS011;36329;48.816;44.624;2022-07-09T12:59:21;3;;;1.2;;
49582;SDS011;36329;48.816;44.624;2022-07-09T13:02:23;3.5;;;1.3;;
49582;SDS011;36329;48.816;44.624;2022-07-09T13:05:25;5.6;;;1.2;;
49582;SDS011;36329;48.816;44.624;2022-07-09T13:08:26;2.3;;;0.9;;
49582;SDS011;36329;48.816;44.624;2022-07-09T13:11:28;3.4;;;1.1;;
49582;SDS011;36329;48.816;44.624;2022-07-09T13:14:30;2.5;;;0.8;;
49582;SDS011;36329;48.816;44.624;2022-07-09T13:17:36;2.7;;;0.8;;
49582;SDS011;36329;48.816;44.624;2022-07-09T13:20:38;3.5;;;0.9;;
49582;SDS011;36329;48.816;44.624;2022-07-09T13:23:39;4;;;1.1;;
49582;SDS011;36329;48.816;44.624;2022-07-09T13:26:46;2.9;;;1;;
49582;SDS011;36329;48.816;44.624;2022-07-09T13:29:52;4.1;;;1.1;;
49582;SDS011;36329;48.816;44.624;2022-07-09T13:32:54;3.8;;;1.3;;
49582;SDS011;36329;48.816;44.624;2022-07-09T13:35:55;3.2;;;1.2;;
49582;SDS011;36329;48.816;44.624;2022-07-09T13:39:02;5.4;;;1.3;;
49582;SDS011;36329;48.816;44.624;2022-07-09T13:42:09;10;;;1.6;;
49582;SDS011;36329;48.816;44.624;2022-07-09T13:45:10;4.8;;;1.5;;
49582;SDS011;36329;48.816;44.624;2022-07-09T13:48:12;3.6;;;1;;
49582;SDS011;36329;48.816;44.624;2022-07-09T13:51:13;4.5;;;1.1;;
49582;SDS011;36329;48.816;44.624;2022-07-09T13:54:15;3.8;;;1;;
49582;SDS011;36329;48.816;44.624;2022-07-09T13:57:21;5.6;;;1.2;;
49582;SDS011;36329;48.816;44.624;2022-07-09T14:00:23;5.8;;;1.4;;
49582;SDS011;36329;48.816;44.624;2022-07-09T14:03:24;7.2;;;1.7;;
49582;SDS011;36329;48.816;44.624;2022-07-09T14:06:26;6.2;;;1.7;;
49582;SDS011;36329;48.816;44.624;2022-07-09T14:09:42;9.6;;;2.5;;
49582;SDS011;36329;48.816;44.624;2022-07-09T14:12:44;14.3;;;2.2;;
49582;SDS011;36329;48.816;44.624;2022-07-09T14:15:45;6.2;;;1.3;;
49582;SDS011;36329;48.816;44.624;2022-07-09T14:18:52;5.4;;;1.2;;
49582;SDS011;36329;48.816;44.624;2022-07-09T14:21:59;5.7;;;1.7;;
49582;SDS011;36329;48.816;44.624;2022-07-09T14:25:00;2.8;;;1.1;;
49582;SDS011;36329;48.816;44.624;2022-07-09T14:28:02;6;;;2;;
49582;SDS011;36329;48.816;44.624;2022-07-09T14:31:09;7;;;2.4;;
49582;SDS011;36329;48.816;44.624;2022-07-09T14:34:15;6;;;1.9;;
49582;SDS011;36329;48.816;44.624;2022-07-09T14:37:17;9.2;;;2.2;;
49582;SDS011;36329;48.816;44.624;2022-07-09T14:40:23;5.2;;;2;;
49582;SDS011;36329;48.816;44.624;2022-07-09T14:43:24;4.6;;;1.8;;
49582;SDS011;36329;48.816;44.624;2022-07-09T14:46:26;7.7;;;2.2;;
49582;SDS011;36329;48.816;44.624;2022-07-09T14:49:32;5.4;;;2.1;;
49582;SDS011;36329;48.816;44.624;2022-07-09T14:52:34;7.9;;;2.2;;
49582;SDS011;36329;48.816;44.624;2022-07-09T14:55:36;7.7;;;2.3;;
49582;SDS011;36329;48.816;44.624;2022-07-09T14:58:37;5.1;;;2;;
49582;SDS011;36329;48.816;44.624;2022-07-09T15:01:39;11.1;;;2.2;;
49582;SDS011;36329;48.816;44.624;2022-07-09T15:04:46;7.7;;;2.6;;
49582;SDS011;36329;48.816;44.624;2022-07-09T15:07:47;13.6;;;2.6;;
49582;SDS011;36329;48.816;44.624;2022-07-09T15:10:49;9;;;2.1;;
49582;SDS011;36329;48.816;44.624;2022-07-09T15:13:55;11.8;;;2.8;;
49582;SDS011;36329;48.816;44.624;2022-07-09T15:17:02;10.8;;;2.6;;
49582;SDS011;36329;48.816;44.624;2022-07-09T15:20:04;7.6;;;2.8;;
49582;SDS011;36329;48.816;44.624;2022-07-09T15:23:06;8.2;;;2.4;;
49582;SDS011;36329;48.816;44.624;2022-07-09T15:26:08;10.6;;;2.5;;
49582;SDS011;36329;48.816;44.624;2022-07-09T15:29:09;13.9;;;5.8;;
49582;SDS011;36329;48.816;44.624;2022-07-09T15:32:11;21.9;;;8.5;;
49582;SDS011;36329;48.816;44.624;2022-07-09T15:35:12;22.6;;;12.1;;
49582;SDS011;36329;48.816;44.624;2022-07-09T15:38:19;21.8;;;12.6;;
49582;SDS011;36329;48.816;44.624;2022-07-09T15:41:20;27.6;;;9.9;;
49582;SDS011;36329;48.816;44.624;2022-07-09T15:44:22;19.7;;;9.7;;
49582;SDS011;36329;48.816;44.624;2022-07-09T15:47:23;20.4;;;9.9;;
49582;SDS011;36329;48.816;44.624;2022-07-09T15:50:25;21.2;;;10.4;;
49582;SDS011;36329;48.816;44.624;2022-07-09T15:53:31;27.6;;;13.3;;
49582;SDS011;36329;48.816;44.624;2022-07-09T15:56:32;23.6;;;12;;
49582;SDS011;36329;48.816;44.624;2022-07-09T15:59:34;20.9;;;9.2;;
49582;SDS011;36329;48.816;44.624;2022-07-09T16:02:35;14.8;;;7.3;;
49582;SDS011;36329;48.816;44.624;2022-07-09T16:05:42;11.6;;;5.5;;
49582;SDS011;36329;48.816;44.624;2022-07-09T16:08:43;11.3;;;5.4;;
49582;SDS011;36329;48.816;44.624;2022-07-09T16:11:44;12.4;;;5.4;;
49582;SDS011;36329;48.816;44.624;2022-07-09T16:14:51;9.5;;;4.9;;
49582;SDS011;36329;48.816;44.624;2022-07-09T16:17:53;9.1;;;4.4;;
49582;SDS011;36329;48.816;44.624;2022-07-09T16:21:00;7.1;;;3.5;;
49582;SDS011;36329;48.816;44.624;2022-07-09T16:24:02;9.7;;;3.4;;
49582;SDS011;36329;48.816;44.624;2022-07-09T16:27:09;6.6;;;3.3;;
49582;SDS011;36329;48.816;44.624;2022-07-09T16:30:11;8;;;3.6;;
49582;SDS011;36329;48.816;44.624;2022-07-09T16:33:12;8.4;;;3.3;;
49582;SDS011;36329;48.816;44.624;2022-07-09T16:36:14;10.1;;;3.4;;
49582;SDS011;36329;48.816;44.624;2022-07-09T16:39:15;10.6;;;3.8;;
49582;SDS011;36329;48.816;44.624;2022-07-09T16:42:22;12.7;;;3.8;;
49582;SDS011;36329;48.816;44.624;2022-07-09T16:45:23;10.2;;;4.6;;
49582;SDS011;36329;48.816;44.624;2022-07-09T16:48:25;13.2;;;5.3;;
49582;SDS011;36329;48.816;44.624;2022-07-09T16:51:27;20.2;;;6.7;;
49582;SDS011;36329;48.816;44.624;2022-07-09T16:54:28;16.5;;;7.1;;
49582;SDS011;36329;48.816;44.624;2022-07-09T16:57:30;16.7;;;9.1;;
49582;SDS011;36329;48.816;44.624;2022-07-09T17:00:31;22;;;8.9;;
49582;SDS011;36329;48.816;44.624;2022-07-09T17:03:32;20.2;;;8.9;;
49582;SDS011;36329;48.816;44.624;2022-07-09T17:06:39;23;;;9;;
49582;SDS011;36329;48.816;44.624;2022-07-09T17:09:40;17.1;;;8;;
49582;SDS011;36329;48.816;44.624;2022-07-09T17:12:42;16.9;;;8.1;;
49582;SDS011;36329;48.816;44.624;2022-07-09T17:15:48;14.1;;;7.1;;
49582;SDS011;36329;48.816;44.624;2022-07-09T17:18:50;13.3;;;6.4;;
49582;SDS011;36329;48.816;44.624;2022-07-09T17:21:51;15;;;7.2;;
49582;SDS011;36329;48.816;44.624;2022-07-09T17:24:53;13.8;;;7.3;;
49582;SDS011;36329;48.816;44.624;2022-07-09T17:27:54;17.6;;;7.3;;
49582;SDS011;36329;48.816;44.624;2022-07-09T17:30:56;15.8;;;7.2;;
49582;SDS011;36329;48.816;44.624;2022-07-09T17:34:02;15.9;;;6.9;;
49582;SDS011;36329;48.816;44.624;2022-07-09T17:37:04;18.5;;;7.9;;
49582;SDS011;36329;48.816;44.624;2022-07-09T17:40:06;17.1;;;7.2;;
49582;SDS011;36329;48.816;44.624;2022-07-09T17:43:08;18.2;;;8.5;;
49582;SDS011;36329;48.816;44.624;2022-07-09T17:46:09;16.8;;;8.6;;
49582;SDS011;36329;48.816;44.624;2022-07-09T17:49:10;32.5;;;9.7;;
49582;SDS011;36329;48.816;44.624;2022-07-09T17:52:12;17.1;;;7.7;;
49582;SDS011;36329;48.816;44.624;2022-07-09T17:55:14;17.2;;;8;;
49582;SDS011;36329;48.816;44.624;2022-07-09T17:58:15;18.5;;;8.4;;
49582;SDS011;36329;48.816;44.624;2022-07-09T18:01:17;22.2;;;9.8;;
49582;SDS011;36329;48.816;44.624;2022-07-09T18:04:18;20.8;;;9.2;;
49582;SDS011;36329;48.816;44.624;2022-07-09T18:07:20;22.6;;;9.3;;
49582;SDS011;36329;48.816;44.624;2022-07-09T18:10:21;23.3;;;10.3;;
49582;SDS011;36329;48.816;44.624;2022-07-09T18:13:23;22.4;;;10.4;;
49582;SDS011;36329;48.816;44.624;2022-07-09T18:16:24;29.6;;;13;;
49582;SDS011;36329;48.816;44.624;2022-07-09T18:19:26;42.3;;;17.1;;
49582;SDS011;36329;48.816;44.624;2022-07-09T18:22:27;44.6;;;20;;
49582;SDS011;36329;48.816;44.624;2022-07-09T18:25:29;42.4;;;18;;
49582;SDS011;36329;48.816;44.624;2022-07-09T18:28:35;40.6;;;17.7;;
49582;SDS011;36329;48.816;44.624;2022-07-09T18:31:37;43.8;;;18;;
49582;SDS011;36329;48.816;44.624;2022-07-09T18:34:43;41.7;;;18.5;;
49582;SDS011;36329;48.816;44.624;2022-07-09T18:37:45;40.2;;;18.4;;